Saint Michael, MN

10:37 AM CDT on May 29, 2015 (GMT -0500)
KMNOSSEO7 | | Change Station
CLOSE
Current Station
Personal Weather Station
Location: Rogers, MN
Elevation: 991 ft
Nearby Weather Stations

Elev 991 ft 45.17 °N, 93.56 °W | Updated 2 minutes ago

Mostly Cloudy
Mostly Cloudy
68.0 °F
Feels Like 68.0 °F
N
0.0
Wind Variable Wind from North
Gusts 0.0 mph

Today
High -- | Low -- °F
--% Chance of Precip.
Yesterday
High -- | Low -- °F
Precip. -- in
5:32 AM 8:51 PM
Waxing Gibbous, 84% visible
Pressure 29.86 in
Visibility 10.0 miles
Clouds Few 1500 ft
Overcast 4200 ft
Dew Point 64 °F
Humidity 88%
Rainfall 0.05 in
Snow Depth Not available.
UV 2 out of 12
Pollen .90 out of 12
Air Quality Not available.
Flu Activity Sporadic
METAR KMIC 291453Z 23008KT 10SM FEW015 OVC042 21/18 A2987 RMK AO2 SLP111 T02110178 53007

More Conditions Fewer Conditions

Pressure 29.86 in
Visibility 10.0 miles
Clouds Few 1500 ft
Overcast 4200 ft
Dew Point 64 °F
Humidity 88%
Rainfall 0.05 in
Snow Depth Not available.
UV 2 out of 12
Pollen .90 out of 12
Air Quality Not available.
Flu Activity Sporadic
METAR KMIC 291453Z 23008KT 10SM FEW015 OVC042 21/18 A2987 RMK AO2 SLP111 T02110178 53007

More Conditions Fewer Conditions

10-Day Weather Forecast

Almanac

Astronomy

May. 29, 2015 Rise Set
Actual Time
Civil Twilight
Nautical Twilight
Astronomical Twilight
Moon
Length of Visible Light
Length of Day
Tomorrow will be .
, % of the Moon is Illuminated

Today's Extremes

State Highs State Lows

Community

WunderPhotos

Upload Photos

1,825,292 photos uploaded!

WunderBlogs® & News

Nearby

Air Quality

  Air Quality AQ Index Pollutant
Not available.

Snow Depth

Station Depth Elevation

Earthquake Activity

City Distance Mag. Time & Date
Minimum magnitude displayed is 2.5.

Coastal Water Temperatures

Place Temperature

Stations

Nearby Weather Stations

Station Location Temp. Windchill Dew Point Humidity Wind Precip. Elev Updated Type